Logo AVAMET
Benvolgut visitant, si us plau, ingressa Recuperar contrasenya

Inforatge Riola

Dades diàries. Acumulats / Últims 30 dies disponibles

Data Temperatura (°C) Humitat rel. (%) Pressió rel. (hPa) Vent (km/h) Precipitació
Mínima Mitjana Màxima Amplitud
tèrmica
Mínima Mitjana Màxima Mínima Mitjana Màxima Predom. Mitjana Ràfega
màxima
Total
(mm)
Índex-n
Mínima Mitjana Màxima Mínima Mitjana Màxima n
0 a 1
P0 max
mm 5'
Dades mensuals acumulades fins l'últim dia disponible
01/2020 3,1 6,1 8,6 10,9 13,3 16,5 19,2 16,1 34 73 94 1.016 1.027 1.033   4,2 61,2 31,4
Dades anuals acumulades fins l'últim dia disponible
2020 3,1 6,1 8,6 10,9 13,3 16,5 19,2 16,1 34 73 94 1.016 1.027 1.033   4,2 61,2 31,4
Últims 30 dies disponibles
19-01-2020 7,0     9,7     14,2 7,2 71 85 94 1.016 1.018 1.022 NNE 10,9 61,2 31,0 0,34 1,40
18-01-2020 7,6     13,4     19,2 11,6 47 66 84 1.020 1.028 1.033 SW 2,6 24,1 0,0
17-01-2020 8,2     13,4     18,2 10,0 46 60 83 1.027 1.029 1.032 SW 5,6 30,6 0,0
16-01-2020 8,6     12,9     17,9 9,3 52 71 88 1.026 1.028 1.030 W 4,0 17,7 0,0
15-01-2020 7,6     12,4     18,8 11,2 42 61 74 1.023 1.025 1.028 SW 7,1 32,2 0,0
14-01-2020 7,9     11,6     17,8 9,9 36 58 75 1.021 1.022 1.024 SW 6,3 27,4 0,0
13-01-2020 3,5     10,3     17,9 14,4 34 59 85 1.022 1.026 1.031 SW 4,5 20,9 0,0
12-01-2020 3,1     8,0     13,9 10,8 46 76 89 1.029 1.031 1.032 W 1,9 14,5 0,0
11-01-2020 4,1     9,5     15,8 11,7 50 76 89 1.029 1.031 1.033 W 2,1 16,1 0,0
10-01-2020 6,2     10,6     15,2 9,0 51 78 91 1.023 1.026 1.030 NNE 4,0 40,2 0,2
09-01-2020 6,5     10,0     15,7 9,2 66 85 93 1.025 1.028 1.031 W 3,1 19,3 0,0
08-01-2020 3,7     8,3     13,3 9,6 69 87 93 1.028 1.031 1.033 W 1,1 11,3 0,2
07-01-2020 5,8     11,3     16,1 10,3 90 92 92 1.030 1.030 1.030 E 1,6 19,3
30-12-2019 7,9     11,9     14,6 6,7 69 79 89 1.033 1.033 1.035 S 1,3 9,7 0,0
29-12-2019 9,7     11,7     15,2 5,5 84 84 84 1.031 1.031 1.031 ENE 3,2 19,3 0,0
28-12-2019 8,4     11,1     14,4 6,0 76 86 94 1.030 1.031 1.033 S 1,4 12,9 0,0
27-12-2019 8,4     14,0     18,2 9,8 60 78 92 1.028 1.029 1.031 E 1,6 12,9 0,0
26-12-2019 12,2     18,2     24,3 12,1 36 56 88 1.023 1.026 1.030 S 4,5 27,4 0,0
25-12-2019 10,1     15,7     19,8 9,7 59 75 92 1.023 1.024 1.026 W 1,3 12,9 0,0
24-12-2019 14,4     18,9     24,0 9,6 43 57 75 1.025 1.026 1.028 SW 3,4 32,2 0,0
23-12-2019 12,8     17,8     21,3 8,5 41 50 54 1.025 1.027 1.028 SW 6,0 33,8 0,0
22-12-2019 16,5     18,7     20,7 4,2 W 13,8 69,2 0,0
21-12-2019 18,0     22,1     25,9 7,9 SW 16,1 72,4 0,0
20-12-2019 12,7     19,9     22,6 9,9 54 60 83 1.001 1.003 1.008 SW 11,4 46,7 0,0
19-12-2019 9,6     12,6     16,3 6,7 60 72 84 1.008 1.015 1.019 SW 2,9 20,9 0,0
18-12-2019 11,3     13,7     18,4 7,1 47 63 76 1.014 1.017 1.020 SW 7,9 32,2 0,0
17-12-2019 11,6     13,9     17,6 6,0 73 85 90 1.002 1.006 1.014 SW 1,8 14,5 0,0
16-12-2019 7,8     11,2     14,6 6,8 74 83 89 1.004 1.009 1.013 W 0,8 9,7 0,0
15-12-2019 10,6     14,4     19,3 8,7 47 62 78 1.013 1.015 1.018 SW 5,3 33,8 0,0
14-12-2019 12,6     15,8     18,9 6,3 54 62 68 1.015 1.016 1.018 SW 11,3 40,2 0,0
Últims 13 mesos disponibles
12/2019 7,8 11,1 18,0 14,6 14,1 18,3 25,9 18,1 50 72 91 1.003 1.019 1.033 SW 6,2 72,4 129,0
11/2019 6,1 11,6 21,2 15,5 16,1 20,1 28,2 22,1 48 60 81 999 1.011 1.019 SW 7,0 53,1 10,4
10/2019 11,1 15,9 19,5 20,0 16,1 25,6 35,4 24,3 47 72 90 1.008 1.017 1.022 SW 3,5 33,8 49,6
09/2019 14,9 19,8 22,6 23,9 22,2 28,4 34,6 19,7 0 73 86 0 984 1.024 S 4,3 48,3 78,2
08/2019 18,5 22,0 25,8 26,5 27,7 31,4 41,7 23,2 47 73 82 1.010 1.016 1.020 S 4,5 42,6 5,0
07/2019 20,2 22,0 24,7 26,8 28,2 31,2 37,5 17,3 50 71 82 1.006 1.014 1.022 SSE 5,1 45,0 2,6
06/2019 13,5 17,3 22,2 22,7 21,5 27,8 34,5 21,0 41 68 80 1.009 1.015 1.022 S 4,9 45,0 0,0
05/2019 9,3 13,9 20,7 19,0 16,9 23,7 33,3 24,0 48 70 87 1.005 1.015 1.024 S 5,3 50,0 5,6
04/2019 8,8 11,4 15,7 15,6 15,0 20,4 30,4 21,6 45 71 95 1.000 1.014 1.026 O 6,0 50,0 135,2
03/2019 5,6 8,4 14,8 14,2 13,2 20,4 28,8 23,2 42 65 92 1.012 1.023 1.030 SO 4,0 40,7 24,6
02/2019 4,8 7,0 11,6 12,4 13,3 18,5 26,1 21,3 38 67 87 995 1.025 1.034 SSO 4,7 63,0 0,6
01/2019 1,8 6,8 13,3 11,4 13,2 17,3 21,3 19,5 42 62 83 1.003 1.020 1.031 OSO 4,7 53,7 1,2
12/2018 4,1 8,4 13,0 13,3 14,1 19,1 24,1 20,0 48 73 89 1.009 1.026 1.031 O 4,0 55,6 20,0
Tots els anys disponibles
2019 1,8 14,0 25,8 18,6 13,2 23,7 41,7 39,9 0 69 95 0 1.014 1.034 S 5,0 72,4 442,0
2018 1,4 14,2 26,9 18,5 8,5 23,3 37,1 35,7 39 71 94 994 1.017 1.036 SSO 4,6 61,1 718,2
Temperatura (°C)
Humitat relativa (%)
Velocitat del vent i ràfega màxima (km/h)
Direcció del vent (°)
Pressió (hPa)
Precipitació (mm)
Nota sobre les dades: s'avisa a l'usuari de la provisionalitat i no oficialitat d'aquestes dades
Logo AVAMET blanc
Web allotjada a Sollutia
Llicència de Creative CommonsLa web d'AVAMET i els seus continguts estan subjectes a una llicència de
Reconeixement - No Comercial - Compartir igual
Últimes estacions: Xixona - Els Ameradors (Soci), Agres - El Tossal (Soci), Xàbia - Bevenguts (MeteoXàbia), Llíria (Aj. Soci/Inforatge), Orihuela - Lo Capitán, Cox & Guardamar del Segura - horta (Meteorihuela), l'Alcúdia - Carriona & el Real de Gandia (Inforatge), Benicàssim - les Vil·les (Soci),  l'Alfàs del Pi - l'Albir (Soci), - - -